Time;durP1;ratioP1;P1;durP2;ratioP2;P2;SDS_P1;SDS_P2;PMS_P1;PMS_P2;Temp;Humidity;BMP_temperature;BMP_pressure;BME280_temperature;BME280_humidity;BME280_pressure;Samples;Min_cycle;Max_cycle;Signal;HPM_P1;HPM_P2
2023/08/01 00:01:55;;;;;;;;;;;;;;;18.01;72.61;99951.52;108291;1257;73085;-85
2023/08/01 00:04:29;;;;;;;;;;;;;;;17.98;72.66;99944.65;107466;1261;66093;-85
2023/08/01 00:06:57;;;;;;;;;;;;;;;17.96;72.73;99942.56;107173;1260;124197;-92
2023/08/01 00:09:25;;;;;;;;;;;;;;;17.94;72.73;99938.33;107399;1257;58432;-85
2023/08/01 00:12:01;;;;;;;;;;;;;;;17.90;72.77;99934.86;107352;1260;123703;-92
2023/08/01 00:14:30;;;;;;;;;;;;;;;17.88;72.83;99929.20;107465;1260;71789;-85
2023/08/01 00:17:16;;;;;;;;;;;;;;;17.87;72.91;99925.33;107277;1260;67043;-91
2023/08/01 00:19:46;;;;;;;;;;;;;;;17.84;72.85;99921.27;107487;1260;124023;-85
2023/08/01 00:22:13;;;;;;;;;;;;;;;17.82;72.92;99920.40;107397;1257;59612;-85
2023/08/01 00:24:41;;;;;;;;;;;;;;;17.82;73.00;99916.86;107263;1262;123941;-85
2023/08/01 00:27:41;;;;;;;;;;;;;;;17.83;73.09;99917.02;108188;1260;71775;-92
2023/08/01 00:30:11;;;;;;;;;;;;;;;17.83;73.17;99912.94;107401;1258;124461;-92
2023/08/01 00:32:57;;;;;;;;;;;;;;;17.84;73.20;99912.92;107918;1254;70386;-93
2023/08/01 00:35:45;;;;;;;;;;;;;;;17.85;73.22;99913.64;107645;1256;124061;-83
2023/08/01 00:38:26;;;;;;;;;;;;;;;17.86;73.28;99916.83;107600;1254;59534;-85
2023/08/01 00:40:58;;;;;;;;;;;;;;;17.85;73.25;99918.25;107818;1254;73165;-91
2023/08/01 00:43:25;;;;;;;;;;;;;;;17.87;73.36;99919.82;107917;1256;124045;-92
2023/08/01 00:46:02;;;;;;;;;;;;;;;17.90;73.31;99916.39;107610;1255;72780;-91
2023/08/01 00:48:44;;;;;;;;;;;;;;;17.93;73.27;99913.15;107755;1257;124743;-92
2023/08/01 00:51:13;;;;;;;;;;;;;;;17.94;73.24;99910.45;107871;1254;59944;-92
2023/08/01 00:53:47;;;;;;;;;;;;;;;17.96;73.24;99901.38;108106;1254;124076;-93
2023/08/01 00:56:18;;;;;;;;;;;;;;;17.99;73.28;99896.52;107698;1254;65750;-84
2023/08/01 00:58:48;;;;;;;;;;;;;;;18.02;73.20;99900.38;107537;1260;71521;-85
2023/08/01 01:01:28;;;;;;;;;;;;;;;18.05;73.17;99897.30;107686;1254;124073;-92
2023/08/01 01:03:58;;;;;;;;;;;;;;;18.08;73.07;99896.54;107778;1254;59608;-92
2023/08/01 01:06:51;;;;;;;;;;;;;;;18.11;72.98;99893.83;108131;1254;123872;-92
2023/08/01 01:09:35;;;;;;;;;;;;;;;18.11;72.84;99897.16;108615;1254;66876;-91
2023/08/01 01:12:11;;;;;;;;;;;;;;;18.12;72.78;99893.61;107884;1254;124364;-91
2023/08/01 01:14:53;;;;;;;;;;;;;;;18.12;72.80;99889.16;107934;1254;59553;-91
2023/08/01 01:17:27;;;;;;;;;;;;;;;18.11;72.73;99879.60;107848;1254;61142;-90
2023/08/01 01:19:55;;;;;;;;;;;;;;;18.10;72.54;99873.75;108113;1255;71796;-84
2023/08/01 01:22:25;;;;;;;;;;;;;;;18.08;72.60;99864.94;107812;1254;67102;-83
2023/08/01 01:24:52;;;;;;;;;;;;;;;18.06;72.60;99861.76;107703;1254;124025;-90
2023/08/01 01:27:20;;;;;;;;;;;;;;;18.03;72.54;99859.69;107916;1256;57715;-91
2023/08/01 01:29:55;;;;;;;;;;;;;;;17.99;72.51;99859.08;107833;1254;123600;-84
2023/08/01 01:32:22;;;;;;;;;;;;;;;17.95;72.52;99855.77;108220;1254;73082;-84
2023/08/01 01:34:50;;;;;;;;;;;;;;;17.91;72.55;99858.67;108146;1254;66953;-85
2023/08/01 01:37:18;;;;;;;;;;;;;;;17.87;72.50;99852.19;108890;1254;123521;-84
2023/08/01 01:40:20;;;;;;;;;;;;;;;17.84;72.58;99844.25;107877;1260;59739;-90
2023/08/01 01:42:56;;;;;;;;;;;;;;;17.80;72.70;99840.59;107321;1254;123509;-85
2023/08/01 01:48:49;;;;;;;;;;;;;;;17.76;72.80;99834.10;107569;1254;122510;-85
2023/08/01 01:51:54;;;;;;;;;;;;;;;17.77;72.92;99835.67;107683;1258;71547;-94
2023/08/01 01:55:25;;;;;;;;;;;;;;;17.78;73.04;99835.83;108076;1258;123604;-94
2023/08/01 01:58:12;;;;;;;;;;;;;;;17.79;72.92;99835.45;108189;1259;59236;-93
2023/08/01 02:00:42;;;;;;;;;;;;;;;17.78;72.92;99831.75;107738;1259;124079;-85
2023/08/01 02:03:12;;;;;;;;;;;;;;;17.77;72.93;99835.32;107439;1260;65725;-85
2023/08/01 02:06:11;;;;;;;;;;;;;;;17.74;72.89;99827.56;107027;1262;124359;-93
2023/08/01 02:08:53;;;;;;;;;;;;;;;17.73;72.92;99824.92;107155;1263;59035;-92
2023/08/01 02:11:50;;;;;;;;;;;;;;;17.74;72.93;99820.14;106848;1265;124372;-92
2023/08/01 02:14:18;;;;;;;;;;;;;;;17.73;73.08;99815.35;107170;1265;71997;-92
2023/08/01 02:16:49;;;;;;;;;;;;;;;17.71;73.03;99815.39;106838;1265;67014;-85
2023/08/01 02:19:17;;;;;;;;;;;;;;;17.70;73.12;99815.23;106620;1265;124291;-83
2023/08/01 02:22:21;;;;;;;;;;;;;;;17.69;73.13;99811.86;106925;1265;59588;-92
2023/08/01 02:24:58;;;;;;;;;;;;;;;17.69;73.17;99809.73;106733;1265;124309;-92
2023/08/01 02:27:36;;;;;;;;;;;;;;;17.68;73.22;99806.38;106934;1266;72309;-91
2023/08/01 02:30:12;;;;;;;;;;;;;;;17.68;73.27;99806.38;106751;1265;124406;-92
2023/08/01 02:32:39;;;;;;;;;;;;;;;17.71;73.31;99803.86;106834;1265;72932;-85
2023/08/01 02:35:09;;;;;;;;;;;;;;;17.72;73.24;99798.15;107078;1268;59168;-92
2023/08/01 02:37:41;;;;;;;;;;;;;;;17.72;73.29;99792.30;107198;1267;123188;-91
2023/08/01 02:40:13;;;;;;;;;;;;;;;17.74;73.31;99789.06;106673;1266;71885;-83
2023/08/01 02:42:44;;;;;;;;;;;;;;;17.76;73.25;99788.49;106961;1265;124078;-91
2023/08/01 02:45:12;;;;;;;;;;;;;;;17.78;73.24;99787.94;107204;1266;71491;-90
2023/08/01 02:47:48;;;;;;;;;;;;;;;17.78;73.13;99788.46;106677;1267;124899;-90
2023/08/01 02:50:18;;;;;;;;;;;;;;;17.78;73.11;99783.30;106721;1268;60002;-91
2023/08/01 02:52:47;;;;;;;;;;;;;;;17.79;73.18;99776.36;107004;1262;71691;-85
2023/08/01 02:55:15;;;;;;;;;;;;;;;17.79;73.19;99773.34;106735;1261;124152;-84
2023/08/01 02:58:00;;;;;;;;;;;;;;;17.79;73.17;99775.13;107207;1264;71612;-90
2023/08/01 03:00:38;;;;;;;;;;;;;;;17.81;73.17;99771.01;107285;1260;125034;-89
2023/08/01 03:03:28;;;;;;;;;;;;;;;17.81;73.18;99764.61;107883;1256;60376;-91
2023/08/01 03:05:58;;;;;;;;;;;;;;;17.81;73.20;99761.23;108061;1254;124573;-92
2023/08/01 03:08:53;;;;;;;;;;;;;;;17.81;73.14;99757.52;107750;1257;67260;-84
2023/08/01 03:11:21;;;;;;;;;;;;;;;17.82;73.20;99756.44;107967;1256;73721;-93
2023/08/01 03:14:10;;;;;;;;;;;;;;;17.82;73.18;99757.48;107638;1260;60380;-84
2023/08/01 03:16:37;;;;;;;;;;;;;;;17.84;73.19;99760.84;108017;1257;60384;-85
2023/08/01 03:19:06;;;;;;;;;;;;;;;17.85;73.17;99763.15;107711;1257;124287;-85
2023/08/01 03:21:43;;;;;;;;;;;;;;;17.86;73.22;99759.40;107760;1256;67095;-94
2023/08/01 03:24:29;;;;;;;;;;;;;;;17.88;73.13;99758.29;107685;1257;124783;-94
2023/08/01 03:27:10;;;;;;;;;;;;;;;17.91;73.25;99757.17;107543;1256;60597;-86
2023/08/01 03:29:47;;;;;;;;;;;;;;;17.94;73.22;99756.91;107433;1260;124610;-86
2023/08/01 03:32:17;;;;;;;;;;;;;;;17.98;73.15;99754.17;107581;1257;73843;-85
2023/08/01 03:35:11;;;;;;;;;;;;;;;18.01;73.06;99756.60;107690;1257;66871;-90
2023/08/01 03:37:40;;;;;;;;;;;;;;;18.03;73.01;99756.38;107776;1258;125103;-84
2023/08/01 03:40:10;;;;;;;;;;;;;;;18.04;73.00;99749.78;107654;1262;59401;-85
2023/08/01 03:42:42;;;;;;;;;;;;;;;18.05;73.03;99742.29;107592;1257;125357;-92
2023/08/01 03:45:11;;;;;;;;;;;;;;;18.07;72.97;99737.30;107965;1259;74016;-93
2023/08/01 03:47:59;;;;;;;;;;;;;;;18.10;73.01;99742.20;107313;1259;124387;-92
2023/08/01 03:50:33;;;;;;;;;;;;;;;18.12;72.93;99738.79;107565;1262;71334;-94
2023/08/01 03:53:07;;;;;;;;;;;;;;;18.14;72.88;99735.54;107437;1264;60432;-94
2023/08/01 03:56:01;;;;;;;;;;;;;;;18.18;72.95;99735.64;107352;1260;124052;-95
2023/08/01 03:59:21;;;;;;;;;;;;;;;18.20;72.85;99732.73;107174;1260;73904;-94
2023/08/01 04:02:04;;;;;;;;;;;;;;;18.23;72.86;99729.46;107221;1267;124643;-95
2023/08/01 04:04:44;;;;;;;;;;;;;;;18.25;72.87;99726.77;107239;1267;73184;-85
2023/08/01 04:07:18;;;;;;;;;;;;;;;18.30;72.83;99727.02;107235;1267;125102;-94
2023/08/01 04:10:19;;;;;;;;;;;;;;;18.33;72.84;99726.77;106960;1270;59332;-92
2023/08/01 04:13:03;;;;;;;;;;;;;;;18.34;72.89;99725.48;106813;1270;124892;-84
2023/08/01 04:15:57;;;;;;;;;;;;;;;;;;;;;
2023/08/01 04:18:43;;;;;;;;;;;;;;;18.38;72.91;99725.92;106479;1270;124900;-93
2023/08/01 04:21:11;;;;;;;;;;;;;;;18.40;73.05;99723.77;106373;1269;60312;-85
2023/08/01 04:23:46;;;;;;;;;;;;;;;18.41;73.06;99727.29;106674;1268;123969;-93
2023/08/01 04:26:21;;;;;;;;;;;;;;;18.41;72.95;99724.80;107136;1268;72591;-85
2023/08/01 04:28:48;;;;;;;;;;;;;;;18.44;73.07;99724.55;106973;1269;67030;-84
2023/08/01 04:31:16;;;;;;;;;;;;;;;18.45;73.11;99725.77;106513;1272;123710;-85
2023/08/01 04:33:45;;;;;;;;;;;;;;;18.44;73.18;99725.64;106585;1271;60568;-86
2023/08/01 04:36:17;;;;;;;;;;;;;;;18.44;73.14;99724.02;106515;1268;124482;-85
2023/08/01 04:38:45;;;;;;;;;;;;;;;18.43;73.16;99723.70;106349;1268;74207;-84
2023/08/01 04:41:13;;;;;;;;;;;;;;;18.43;73.38;99723.33;107348;1268;67077;-93
2023/08/01 04:44:14;;;;;;;;;;;;;;;18.46;73.51;99720.07;107321;1270;122235;-93
2023/08/01 04:47:01;;;;;;;;;;;;;;;18.46;73.55;99717.75;106651;1271;60448;-86
2023/08/01 04:49:55;;;;;;;;;;;;;;;18.46;73.68;99713.30;107312;1268;122541;-94
2023/08/01 04:53:37;;;;;;;;;;;;;;;18.49;73.69;99719.99;106970;1267;73767;-85
2023/08/01 04:59:46;;;;;;;;;;;;;;;18.43;73.87;99719.25;107074;1268;72591;-85
2023/08/01 05:02:35;;;;;;;;;;;;;;;18.43;74.00;99710.90;107062;1268;60394;-95
2023/08/01 05:05:40;;;;;;;;;;;;;;;18.45;74.09;99705.34;107519;1259;60473;-89
2023/08/01 05:08:22;;;;;;;;;;;;;;;18.50;74.21;99709.88;107352;1259;74446;-91
2023/08/01 05:10:50;;;;;;;;;;;;;;;18.54;74.20;99709.04;107074;1259;67502;-87
2023/08/01 05:13:37;;;;;;;;;;;;;;;18.58;74.34;99709.11;106700;1260;124510;-88
2023/08/01 05:16:17;;;;;;;;;;;;;;;18.61;74.30;99708.15;107197;1261;59360;-89
2023/08/01 05:18:53;;;;;;;;;;;;;;;18.66;74.43;99705.91;107080;1258;124535;-82
2023/08/01 05:21:20;;;;;;;;;;;;;;;18.72;74.49;99699.36;107427;1263;71522;-92
2023/08/01 05:23:51;;;;;;;;;;;;;;;18.80;74.48;99697.05;107390;1263;65666;-85
2023/08/01 05:26:38;;;;;;;;;;;;;;;18.83;74.43;99687.71;107167;1257;71251;-83
2023/08/01 05:29:05;;;;;;;;;;;;;;;18.89;74.44;99687.05;107343;1257;59078;-92
2023/08/01 05:31:45;;;;;;;;;;;;;;;18.95;74.37;99685.98;107333;1257;124683;-84
2023/08/01 05:34:17;;;;;;;;;;;;;;;18.99;74.38;99685.01;107462;1254;72492;-91
2023/08/01 05:36:50;;;;;;;;;;;;;;;19.04;74.40;99687.71;107709;1256;124528;-90
2023/08/01 05:39:20;;;;;;;;;;;;;;;19.11;74.47;99686.29;108041;1253;70680;-82
2023/08/01 05:41:50;;;;;;;;;;;;;;;19.17;74.33;99683.83;108080;1254;59159;-83
2023/08/01 05:44:17;;;;;;;;;;;;;;;19.20;74.28;99677.69;107860;1259;60361;-83
2023/08/01 05:46:44;;;;;;;;;;;;;;;19.27;74.26;99682.30;107659;1253;74018;-83
2023/08/01 05:49:20;;;;;;;;;;;;;;;19.29;74.18;99679.75;107424;1253;124470;-87
2023/08/01 05:51:57;;;;;;;;;;;;;;;19.35;74.28;99679.21;107475;1254;72399;-88
2023/08/01 05:54:25;;;;;;;;;;;;;;;19.42;74.12;99680.27;107415;1254;124471;-82
2023/08/01 05:56:53;;;;;;;;;;;;;;;19.49;74.17;99678.11;107458;1254;60202;-82
2023/08/01 05:59:20;;;;;;;;;;;;;;;19.57;74.20;99680.35;107714;1254;72512;-82
2023/08/01 06:02:00;;;;;;;;;;;;;;;19.65;74.13;99677.10;107587;1254;124294;-88
2023/08/01 06:04:38;;;;;;;;;;;;;;;19.75;74.02;99678.27;107717;1258;71385;-89
2023/08/01 06:07:05;;;;;;;;;;;;;;;19.85;73.91;99678.52;107605;1257;124571;-90
2023/08/01 06:09:32;;;;;;;;;;;;;;;19.92;73.78;99673.30;107627;1254;60620;-90
2023/08/01 06:12:06;;;;;;;;;;;;;;;19.99;73.73;99674.89;107416;1259;124508;-83
2023/08/01 06:14:34;;;;;;;;;;;;;;;20.03;73.57;99673.33;107636;1253;67083;-88
2023/08/01 06:17:05;;;;;;;;;;;;;;;20.07;73.52;99668.39;107519;1254;71199;-89
2023/08/01 06:19:40;;;;;;;;;;;;;;;20.13;73.34;99667.86;107659;1254;124051;-82
2023/08/01 06:22:20;;;;;;;;;;;;;;;20.17;73.28;99666.30;107736;1256;60401;-82
2023/08/01 06:24:47;;;;;;;;;;;;;;;20.21;73.11;99661.70;107695;1254;123684;-83
2023/08/01 06:27:17;;;;;;;;;;;;;;;20.24;72.97;99657.90;107704;1256;67065;-82
2023/08/01 06:29:46;;;;;;;;;;;;;;;20.26;72.88;99654.80;107922;1253;72770;-82
2023/08/01 06:32:13;;;;;;;;;;;;;;;20.32;72.94;99652.13;107581;1254;123667;-91
2023/08/01 06:34:48;;;;;;;;;;;;;;;20.38;72.96;99646.04;107447;1254;60546;-83
2023/08/01 06:37:15;;;;;;;;;;;;;;;20.43;72.71;99646.41;107462;1256;123729;-90
2023/08/01 06:39:42;;;;;;;;;;;;;;;20.48;72.68;99645.35;107613;1259;65751;-83
2023/08/01 06:42:16;;;;;;;;;;;;;;;20.49;72.51;99643.88;107446;1254;122675;-91
2023/08/01 06:45:03;;;;;;;;;;;;;;;20.52;72.60;99645.03;107478;1257;60292;-91
2023/08/01 06:47:34;;;;;;;;;;;;;;;20.52;72.37;99645.92;107353;1259;60349;-91
2023/08/01 06:50:15;;;;;;;;;;;;;;;20.53;72.43;99643.56;107705;1254;123696;-84
2023/08/01 06:52:42;;;;;;;;;;;;;;;20.55;72.19;99646.54;107603;1254;67174;-91
2023/08/01 06:55:24;;;;;;;;;;;;;;;20.56;72.29;99645.77;107953;1254;124304;-92
2023/08/01 06:57:51;;;;;;;;;;;;;;;20.59;72.24;99642.84;107939;1253;59185;-84
2023/08/01 07:00:18;;;;;;;;;;;;;;;20.64;72.22;99640.73;107379;1254;125067;-82
2023/08/01 07:02:45;;;;;;;;;;;;;;;20.66;72.04;99639.43;107500;1260;73498;-89
2023/08/01 07:05:16;;;;;;;;;;;;;;;20.64;71.96;99638.27;107477;1254;68079;-84
2023/08/01 07:07:44;;;;;;;;;;;;;;;20.64;72.00;99639.13;107646;1254;124661;-84
2023/08/01 07:10:16;;;;;;;;;;;;;;;20.66;71.93;99633.01;107823;1254;60729;-88
2023/08/01 07:12:43;;;;;;;;;;;;;;;20.66;71.81;99633.19;107680;1254;123174;-83
2023/08/01 07:15:11;;;;;;;;;;;;;;;20.65;71.72;99635.38;107792;1257;73938;-88
2023/08/01 07:17:38;;;;;;;;;;;;;;;20.68;71.76;99631.52;107764;1254;66812;-89
2023/08/01 07:20:28;;;;;;;;;;;;;;;20.72;71.75;99632.28;107685;1254;124534;-83
2023/08/01 07:22:55;;;;;;;;;;;;;;;20.78;71.71;99626.18;107696;1254;60302;-84
2023/08/01 07:25:35;;;;;;;;;;;;;;;20.87;71.76;99621.96;107567;1254;124550;-83
2023/08/01 07:28:03;;;;;;;;;;;;;;;21.03;71.78;99624.20;107495;1254;73683;-88
2023/08/01 07:30:38;;;;;;;;;;;;;;;21.15;71.52;99620.05;107594;1258;123840;-90
2023/08/01 07:33:05;;;;;;;;;;;;;;;21.18;71.35;99614.23;107446;1254;72685;-90
2023/08/01 07:35:32;;;;;;;;;;;;;;;21.19;71.30;99612.75;107425;1254;60427;-83
2023/08/01 07:37:59;;;;;;;;;;;;;;;21.23;71.27;99604.77;107367;1254;123795;-84
2023/08/01 07:40:26;;;;;;;;;;;;;;;21.27;71.14;99602.27;107462;1253;72283;-88
2023/08/01 07:43:01;;;;;;;;;;;;;;;21.21;70.86;99599.30;107246;1259;123799;-89
2023/08/01 07:45:28;;;;;;;;;;;;;;;21.13;71.00;99598.18;107585;1254;72544;-90
2023/08/01 07:47:56;;;;;;;;;;;;;;;21.05;70.92;99595.61;107581;1254;123977;-90
2023/08/01 07:50:23;;;;;;;;;;;;;;;20.95;70.91;99594.38;107406;1254;60438;-90
2023/08/01 07:52:59;;;;;;;;;;;;;;;20.89;71.09;99587.64;107559;1257;72565;-82
2023/08/01 07:55:49;;;;;;;;;;;;;;;20.89;71.20;99583.90;107415;1254;123851;-89
2023/08/01 07:58:27;;;;;;;;;;;;;;;20.86;71.22;99582.02;107476;1253;71197;-90
2023/08/01 08:00:54;;;;;;;;;;;;;;;20.83;71.21;99581.63;107439;1253;123816;-89
2023/08/01 08:03:24;;;;;;;;;;;;;;;20.76;71.18;99576.48;107844;1254;60186;-89
2023/08/01 08:05:51;;;;;;;;;;;;;;;20.71;71.16;99575.98;107820;1254;124582;-82
2023/08/01 08:08:19;;;;;;;;;;;;;;;20.65;71.26;99574.04;107903;1254;66014;-83
2023/08/01 08:10:46;;;;;;;;;;;;;;;20.61;71.36;99572.94;107932;1254;70623;-90
2023/08/01 08:13:13;;;;;;;;;;;;;;;20.58;71.44;99573.54;107387;1253;124258;-83
2023/08/01 08:15:40;;;;;;;;;;;;;;;20.54;71.50;99577.05;107699;1254;60463;-88
2023/08/01 08:18:26;;;;;;;;;;;;;;;20.54;71.69;99572.59;107341;1253;125024;-82
2023/08/01 08:20:54;;;;;;;;;;;;;;;20.58;71.74;99573.17;107691;1253;65951;-82
2023/08/01 08:23:21;;;;;;;;;;;;;;;20.62;71.75;99572.71;107622;1254;71700;-84
2023/08/01 08:25:52;;;;;;;;;;;;;;;20.61;71.73;99573.46;107311;1260;124757;-84
2023/08/01 08:28:41;;;;;;;;;;;;;;;20.65;71.69;99571.56;107414;1254;60414;-82
2023/08/01 08:31:08;;;;;;;;;;;;;;;20.66;71.66;99572.26;107471;1253;124567;-90
2023/08/01 08:33:36;;;;;;;;;;;;;;;20.71;71.92;99569.34;107536;1253;65429;-90
2023/08/01 08:36:05;;;;;;;;;;;;;;;20.80;71.81;99564.61;107608;1255;125232;-84
2023/08/01 08:38:32;;;;;;;;;;;;;;;20.92;71.87;99566.82;107719;1254;59061;-88
2023/08/01 08:41:00;;;;;;;;;;;;;;;21.08;71.87;99568.02;107990;1254;59100;-82
2023/08/01 08:43:33;;;;;;;;;;;;;;;21.34;71.87;99561.72;107357;1254;124661;-85
2023/08/01 08:46:08;;;;;;;;;;;;;;;21.64;71.57;99560.93;107473;1257;65949;-88
2023/08/01 08:48:38;;;;;;;;;;;;;;;21.93;71.19;99562.64;107435;1254;124090;-91
2023/08/01 08:51:05;;;;;;;;;;;;;;;22.10;70.83;99560.32;107462;1253;60488;-83
2023/08/01 08:53:42;;;;;;;;;;;;;;;22.16;70.18;99558.98;107509;1253;61182;-82
2023/08/01 08:56:10;;;;;;;;;;;;;;;22.13;69.72;99560.19;107537;1254;123925;-83
2023/08/01 08:58:38;;;;;;;;;;;;;;;22.13;69.57;99556.82;107596;1254;65668;-88
2023/08/01 09:01:12;;;;;;;;;;;;;;;22.29;69.65;99550.27;107467;1253;123535;-83
2023/08/01 09:03:39;;;;;;;;;;;;;;;22.65;69.89;99541.75;107466;1259;60511;-83
2023/08/01 09:06:13;;;;;;;;;;;;;;;23.05;69.72;99537.43;107412;1253;124053;-84
2023/08/01 09:08:43;;;;;;;;;;;;;;;23.31;68.75;99535.23;107635;1253;73663;-88
2023/08/01 09:11:13;;;;;;;;;;;;;;;23.30;67.87;99535.98;107565;1254;67530;-84
2023/08/01 09:13:42;;;;;;;;;;;;;;;23.21;67.63;99536.40;107326;1254;124071;-89
2023/08/01 09:16:09;;;;;;;;;;;;;;;23.06;67.23;99537.44;107565;1253;58943;-83
2023/08/01 09:18:57;;;;;;;;;;;;;;;22.95;67.20;99532.71;107521;1254;124234;-91
2023/08/01 09:21:26;;;;;;;;;;;;;;;22.88;67.21;99528.71;107685;1259;72647;-83
2023/08/01 09:24:10;;;;;;;;;;;;;;;22.89;67.23;99530.66;107770;1254;123831;-89
2023/08/01 09:26:37;;;;;;;;;;;;;;;22.90;67.00;99530.08;107701;1260;71092;-87
2023/08/01 09:29:04;;;;;;;;;;;;;;;22.85;66.90;99532.10;107824;1253;60276;-87
2023/08/01 09:31:38;;;;;;;;;;;;;;;22.69;66.47;99528.52;107900;1254;123593;-87
2023/08/01 09:34:06;;;;;;;;;;;;;;;22.45;66.38;99522.96;107584;1254;74242;-87
2023/08/01 09:36:34;;;;;;;;;;;;;;;22.36;66.60;99525.48;107833;1254;123865;-82
2023/08/01 09:39:01;;;;;;;;;;;;;;;22.25;66.63;99521.82;108011;1254;71428;-82
2023/08/01 09:41:29;;;;;;;;;;;;;;;22.10;66.69;99522.11;107691;1259;60298;-82
2023/08/01 09:43:56;;;;;;;;;;;;;;;21.93;66.76;99519.40;107830;1254;123579;-82
2023/08/01 09:46:24;;;;;;;;;;;;;;;21.81;66.99;99516.70;107783;1254;75025;-82
2023/08/01 09:48:51;;;;;;;;;;;;;;;21.71;67.21;99518.36;108697;1254;123605;-88
2023/08/01 09:51:18;;;;;;;;;;;;;;;21.64;67.37;99513.99;107879;1259;72623;-88
2023/08/01 09:53:55;;;;;;;;;;;;;;;21.59;67.51;99515.06;107680;1259;60328;-83
2023/08/01 09:56:28;;;;;;;;;;;;;;;21.51;67.62;99517.17;107769;1253;59004;-84
2023/08/01 09:58:55;;;;;;;;;;;;;;;21.47;67.89;99518.95;107617;1254;72762;-84
2023/08/01 10:01:23;;;;;;;;;;;;;;;21.46;68.07;99514.52;107428;1254;124371;-90
2023/08/01 10:03:51;;;;;;;;;;;;;;;21.41;68.12;99511.45;107619;1254;72806;-83
2023/08/01 10:06:33;;;;;;;;;;;;;;;21.47;68.36;99507.87;107663;1254;124899;-89
2023/08/01 10:09:01;;;;;;;;;;;;;;;21.55;68.44;99505.41;107598;1259;60460;-84
2023/08/01 10:11:29;;;;;;;;;;;;;;;21.62;68.38;99504.23;107438;1254;72543;-84
2023/08/01 10:13:57;;;;;;;;;;;;;;;21.68;68.46;99499.00;107759;1254;124796;-88
2023/08/01 10:16:24;;;;;;;;;;;;;;;21.75;68.31;99499.59;107742;1254;71162;-84
2023/08/01 10:18:59;;;;;;;;;;;;;;;21.81;68.34;99500.25;107390;1259;124413;-84
2023/08/01 10:21:27;;;;;;;;;;;;;;;21.88;68.17;99494.61;107341;1256;60534;-84
2023/08/01 10:24:00;;;;;;;;;;;;;;;21.95;68.16;99491.98;107265;1254;124649;-84
2023/08/01 10:26:27;;;;;;;;;;;;;;;21.96;67.93;99485.90;107643;1254;65901;-82
2023/08/01 10:28:59;;;;;;;;;;;;;;;21.91;67.75;99482.18;107943;1254;71125;-82
2023/08/01 10:31:27;;;;;;;;;;;;;;;21.79;67.71;99481.21;107848;1259;124188;-90
2023/08/01 10:34:05;;;;;;;;;;;;;;;21.70;67.73;99476.95;107711;1255;59106;-90
2023/08/01 10:36:35;;;;;;;;;;;;;;;21.66;67.94;99477.84;107794;1253;124043;-83
2023/08/01 10:39:03;;;;;;;;;;;;;;;21.70;68.07;99473.53;107842;1257;65191;-90
2023/08/01 10:41:40;;;;;;;;;;;;;;;21.78;68.25;99473.77;107681;1254;72759;-81
2023/08/01 10:44:14;;;;;;;;;;;;;;;21.88;68.30;99473.34;107558;1257;124576;-89
2023/08/01 10:47:06;;;;;;;;;;;;;;;22.01;68.20;99467.98;107736;1254;59708;-89
2023/08/01 10:49:46;;;;;;;;;;;;;;;22.08;68.16;99467.68;107328;1254;123895;-89
2023/08/01 10:52:17;;;;;;;;;;;;;;;22.15;68.24;99462.59;107362;1254;336262;-89
2023/08/01 10:55:00;;;;;;;;;;;;;;;22.18;68.14;99460.84;107458;1254;124088;-87
2023/08/01 10:57:35;;;;;;;;;;;;;;;22.09;67.93;99461.91;107720;1254;59103;-89
2023/08/01 11:00:04;;;;;;;;;;;;;;;22.02;68.11;99459.91;107312;1254;123895;-85
2023/08/01 11:02:33;;;;;;;;;;;;;;;21.94;67.94;99463.11;107312;1259;72476;-90
2023/08/01 11:05:00;;;;;;;;;;;;;;;21.88;68.33;99457.80;107895;1257;66848;-90
2023/08/01 11:07:27;;;;;;;;;;;;;;;21.83;68.32;99459.61;107813;1254;124603;-88
2023/08/01 11:10:05;;;;;;;;;;;;;;;21.78;68.42;99451.48;107845;1254;60525;-89
2023/08/01 11:12:44;;;;;;;;;;;;;;;21.72;68.61;99449.04;107743;1254;124832;-89
2023/08/01 11:15:16;;;;;;;;;;;;;;;21.74;68.85;99446.25;107881;1259;73919;-90
2023/08/01 11:17:50;;;;;;;;;;;;;;;21.75;68.86;99444.95;107711;1254;65771;-89
2023/08/01 11:20:19;;;;;;;;;;;;;;;21.71;68.82;99443.86;107412;1256;124355;-89
2023/08/01 11:23:06;;;;;;;;;;;;;;;21.68;68.66;99441.67;107526;1254;60526;-82
2023/08/01 11:25:40;;;;;;;;;;;;;;;21.63;68.92;99440.30;107552;1254;124420;-82
2023/08/01 11:28:17;;;;;;;;;;;;;;;21.55;68.86;99443.98;107609;1254;73985;-84
2023/08/01 11:30:45;;;;;;;;;;;;;;;21.50;69.14;99442.63;107794;1253;124254;-83
2023/08/01 11:33:13;;;;;;;;;;;;;;;21.43;69.34;99444.63;107880;1254;72572;-83
2023/08/01 11:35:42;;;;;;;;;;;;;;;21.34;69.50;99445.89;108069;1254;59247;-88
2023/08/01 11:38:09;;;;;;;;;;;;;;;21.28;69.70;99442.56;107815;1254;123766;-83
2023/08/01 11:40:37;;;;;;;;;;;;;;;21.21;69.78;99438.39;107837;1254;73570;-88
2023/08/01 11:43:05;;;;;;;;;;;;;;;21.14;70.02;99442.06;107676;1254;123706;-88
2023/08/01 11:46:00;;;;;;;;;;;;;;;21.16;70.26;99435.36;107703;1254;72745;-89
2023/08/01 11:48:28;;;;;;;;;;;;;;;21.25;70.43;99434.86;107911;1254;123710;-89
2023/08/01 11:51:14;;;;;;;;;;;;;;;21.34;70.50;99437.34;107756;1254;60351;-89
2023/08/01 11:53:42;;;;;;;;;;;;;;;21.41;70.31;99433.13;107655;1257;72341;-83
2023/08/01 11:56:26;;;;;;;;;;;;;;;21.49;70.41;99432.98;107407;1254;123905;-88
2023/08/01 11:58:54;;;;;;;;;;;;;;;21.61;70.36;99428.42;107254;1254;70384;-87
2023/08/01 12:01:22;;;;;;;;;;;;;;;21.60;70.17;99427.89;107646;1254;124223;-82
2023/08/01 12:03:56;;;;;;;;;;;;;;;21.60;70.21;99427.02;107800;1254;60424;-83
2023/08/01 12:06:30;;;;;;;;;;;;;;;21.57;69.91;99422.17;107821;1254;124642;-89
2023/08/01 12:09:06;;;;;;;;;;;;;;;21.49;69.86;99423.71;107720;1254;67958;-83
2023/08/01 12:11:35;;;;;;;;;;;;;;;21.45;69.98;99421.04;107637;1258;73123;-83
2023/08/01 12:14:04;;;;;;;;;;;;;;;21.49;70.09;99418.75;107604;1258;124844;-89
2023/08/01 12:16:48;;;;;;;;;;;;;;;21.47;70.03;99418.25;107371;1261;60401;-89
2023/08/01 12:19:19;;;;;;;;;;;;;;;21.56;70.10;99412.77;107517;1254;123413;-90
2023/08/01 12:21:52;;;;;;;;;;;;;;;21.72;70.25;99414.91;107430;1254;67093;-83
2023/08/01 12:24:19;;;;;;;;;;;;;;;21.95;70.39;99406.45;107518;1254;124995;-89
2023/08/01 12:26:52;;;;;;;;;;;;;;;22.05;69.97;99406.17;107619;1253;60453;-90
2023/08/01 12:29:29;;;;;;;;;;;;;;;22.05;69.89;99405.29;107443;1254;60365;-88
2023/08/01 12:31:56;;;;;;;;;;;;;;;22.02;69.86;99405.08;107659;1254;124138;-90
2023/08/01 12:34:23;;;;;;;;;;;;;;;21.95;69.86;99405.73;107734;1253;68073;-89
2023/08/01 12:36:50;;;;;;;;;;;;;;;21.88;69.96;99405.52;107531;1259;123750;-88
2023/08/01 12:39:20;;;;;;;;;;;;;;;21.82;70.22;99405.05;107589;1254;60332;-88
2023/08/01 12:42:00;;;;;;;;;;;;;;;21.69;70.14;99404.69;107443;1257;59121;-88
2023/08/01 12:44:28;;;;;;;;;;;;;;;21.51;70.11;99407.03;107648;1258;73969;-88
2023/08/01 12:46:55;;;;;;;;;;;;;;;21.35;70.43;99411.75;107410;1259;66803;-88
2023/08/01 12:49:22;;;;;;;;;;;;;;;21.30;70.64;99408.77;107380;1256;123651;-84
2023/08/01 12:51:49;;;;;;;;;;;;;;;21.25;70.91;99405.20;107625;1259;58513;-84
2023/08/01 12:54:16;;;;;;;;;;;;;;;21.24;71.11;99407.58;107484;1257;123924;-84
2023/08/01 12:56:49;;;;;;;;;;;;;;;21.23;71.31;99400.65;107982;1254;72973;-84
2023/08/01 12:59:16;;;;;;;;;;;;;;;21.23;71.29;99401.38;107953;1254;65690;-88
2023/08/01 13:01:46;;;;;;;;;;;;;;;21.21;71.45;99398.96;107347;1258;124333;-88
2023/08/01 13:04:14;;;;;;;;;;;;;;;21.19;71.63;99396.73;107607;1257;59228;-90
2023/08/01 13:06:43;;;;;;;;;;;;;;;21.20;71.85;99398.27;107341;1255;124122;-87
2023/08/01 13:09:12;;;;;;;;;;;;;;;21.32;72.14;99392.45;107472;1254;72318;-84
2023/08/01 13:11:45;;;;;;;;;;;;;;;21.51;72.31;99387.76;107404;1259;67182;-84
2023/08/01 13:14:33;;;;;;;;;;;;;;;21.70;72.20;99378.79;107335;1259;124475;-87
2023/08/01 13:17:00;;;;;;;;;;;;;;;21.84;72.14;99372.81;107467;1258;60536;-87